Time;durP1;ratioP1;P1;durP2;ratioP2;P2;SDS_P1;SDS_P2;PMS_P1;PMS_P2;Temp;Humidity;BMP_temperature;BMP_pressure;BME280_temperature;BME280_humidity;BME280_pressure;Samples;Min_cycle;Max_cycle;Signal;HPM_P1;HPM_P2
2021/05/29 00:02:20;;;;;;;19.27;10.30;;;;;;;;;;5040448;28;20201;-66
2021/05/29 00:04:46;;;;;;;17.02;10.32;;;;;;;;;;5029828;28;20216;-66
2021/05/29 00:07:12;;;;;;;23.52;10.32;;;;;;;;;;5036493;28;20271;-66
2021/05/29 00:09:38;;;;;;;18.00;10.75;;;;;;;;;;5034457;28;20181;-66
2021/05/29 00:12:07;;;;;;;18.08;11.52;;;;;;;;;;5039674;28;20189;-66
2021/05/29 00:14:34;;;;;;;20.52;10.70;;;;;;;;;;5037438;28;20593;-66
2021/05/29 00:16:59;;;;;;;16.70;9.70;;;;;;;;;;5028860;28;20192;-66
2021/05/29 00:19:25;;;;;;;18.98;10.80;;;;;;;;;;5044957;28;20708;-66
2021/05/29 00:21:50;;;;;;;17.92;10.43;;;;;;;;;;5035593;28;20190;-66
2021/05/29 00:24:16;;;;;;;17.65;11.35;;;;;;;;;;5036178;28;20178;-66
2021/05/29 00:26:41;;;;;;;19.05;10.65;;;;;;;;;;5029037;28;20247;-66
2021/05/29 00:29:07;;;;;;;17.73;10.98;;;;;;;;;;5039255;28;20268;-66
2021/05/29 00:31:32;;;;;;;18.90;10.57;;;;;;;;;;5030765;28;20288;-66
2021/05/29 00:33:57;;;;;;;22.90;11.90;;;;;;;;;;5034898;28;20232;-66
2021/05/29 00:36:23;;;;;;;18.08;11.18;;;;;;;;;;5030823;28;20197;-66
2021/05/29 00:38:49;;;;;;;16.88;10.00;;;;;;;;;;5037081;28;20178;-66
2021/05/29 00:41:17;;;;;;;16.77;10.38;;;;;;;;;;5028989;28;20193;-67
2021/05/29 00:43:42;;;;;;;15.35;10.43;;;;;;;;;;5040146;28;20236;-66
2021/05/29 00:46:08;;;;;;;19.45;11.82;;;;;;;;;;5044028;28;20572;-67
2021/05/29 00:48:35;;;;;;;16.35;9.98;;;;;;;;;;5030531;28;20657;-66
2021/05/29 00:51:01;;;;;;;23.20;11.82;;;;;;;;;;5039797;28;20634;-66
2021/05/29 00:53:28;;;;;;;17.70;11.70;;;;;;;;;;5030234;28;20272;-66
2021/05/29 00:55:54;;;;;;;20.08;12.27;;;;;;;;;;5044776;28;20185;-66
2021/05/29 00:58:25;;;;;;;18.70;11.43;;;;;;;;;;5031233;28;20216;-66
2021/05/29 01:00:51;;;;;;;18.58;11.30;;;;;;;;;;5045014;28;20205;-66
2021/05/29 01:03:16;;;;;;;16.95;10.68;;;;;;;;;;5027501;28;20193;-67
2021/05/29 01:05:43;;;;;;;19.08;11.95;;;;;;;;;;5041653;28;20577;-66
2021/05/29 01:08:09;;;;;;;18.83;10.23;;;;;;;;;;5030110;28;20505;-66
2021/05/29 01:10:35;;;;;;;18.27;11.67;;;;;;;;;;5037198;28;20637;-66
2021/05/29 01:13:02;;;;;;;19.80;12.07;;;;;;;;;;5036288;28;21613;-66
2021/05/29 01:15:36;;;;;;;19.23;12.80;;;;;;;;;;5036896;28;20268;-67
2021/05/29 01:18:03;;;;;;;19.40;11.47;;;;;;;;;;5028455;28;20304;-66
2021/05/29 01:20:28;;;;;;;21.00;13.35;;;;;;;;;;5040767;28;20232;-66
2021/05/29 01:22:55;;;;;;;20.33;12.83;;;;;;;;;;5038119;28;20169;-66
2021/05/29 01:25:25;;;;;;;25.13;12.27;;;;;;;;;;5036251;28;20695;-67
2021/05/29 01:28:02;;;;;;;19.47;12.77;;;;;;;;;;5035532;28;20178;-66
2021/05/29 01:30:31;;;;;;;22.13;13.82;;;;;;;;;;5033644;28;20200;-66
2021/05/29 01:32:58;;;;;;;21.17;14.18;;;;;;;;;;5036822;28;20217;-67
2021/05/29 01:35:24;;;;;;;24.83;15.48;;;;;;;;;;5034392;28;21177;-66
2021/05/29 01:37:52;;;;;;;22.90;14.32;;;;;;;;;;5044236;28;20261;-66
2021/05/29 01:40:17;;;;;;;22.73;13.80;;;;;;;;;;5036397;28;20197;-67
2021/05/29 01:42:44;;;;;;;25.33;14.20;;;;;;;;;;5042964;28;20189;-67
2021/05/29 01:45:10;;;;;;;24.30;15.00;;;;;;;;;;5038955;28;20216;-66
2021/05/29 01:47:41;;;;;;;23.50;14.25;;;;;;;;;;5040689;28;20181;-66
2021/05/29 01:50:09;;;;;;;28.50;16.90;;;;;;;;;;5037806;28;20177;-66
2021/05/29 01:52:54;;;;;;;30.75;15.15;;;;;;;;;;5043708;28;20710;-66
2021/05/29 01:55:21;;;;;;;26.27;16.20;;;;;;;;;;5039390;28;20311;-66
2021/05/29 01:57:47;;;;;;;26.10;16.17;;;;;;;;;;5040872;28;20257;-67
2021/05/29 02:00:14;;;;;;;25.40;15.90;;;;;;;;;;5045636;28;20276;-67
2021/05/29 02:02:39;;;;;;;24.70;15.38;;;;;;;;;;5042964;28;20220;-66
2021/05/29 02:05:13;;;;;;;28.33;16.30;;;;;;;;;;5048810;28;20217;-66
2021/05/29 02:07:38;;;;;;;24.23;15.30;;;;;;;;;;5034653;28;20178;-66
2021/05/29 02:10:05;;;;;;;30.45;15.65;;;;;;;;;;5044463;28;20206;-66
2021/05/29 02:12:42;;;;;;;26.40;15.40;;;;;;;;;;5029822;28;20190;-66
2021/05/29 02:15:10;;;;;;;27.95;15.35;;;;;;;;;;5041976;28;20205;-66
2021/05/29 02:17:36;;;;;;;27.63;16.90;;;;;;;;;;5035404;28;20182;-66
2021/05/29 02:20:04;;;;;;;26.80;15.93;;;;;;;;;;5042702;28;20224;-66
2021/05/29 02:22:30;;;;;;;30.83;16.23;;;;;;;;;;5029722;28;20232;-66
2021/05/29 02:24:55;;;;;;;28.00;16.93;;;;;;;;;;5038958;28;20209;-66
2021/05/29 02:27:20;;;;;;;28.40;17.40;;;;;;;;;;5031833;28;20193;-66
2021/05/29 02:29:46;;;;;;;27.43;17.40;;;;;;;;;;5042726;28;20692;-66
2021/05/29 02:32:11;;;;;;;29.37;17.87;;;;;;;;;;5027073;28;20185;-66
2021/05/29 02:34:37;;;;;;;27.63;17.67;;;;;;;;;;5043900;28;20185;-66
2021/05/29 02:37:02;;;;;;;30.03;18.07;;;;;;;;;;5033504;28;20178;-66
2021/05/29 02:39:28;;;;;;;29.03;18.43;;;;;;;;;;5040380;28;20186;-66
2021/05/29 02:41:53;;;;;;;28.50;17.33;;;;;;;;;;5042191;28;20190;-66
2021/05/29 02:44:18;;;;;;;29.87;16.50;;;;;;;;;;5038663;28;20189;-66
2021/05/29 02:46:44;;;;;;;25.90;16.40;;;;;;;;;;5041594;28;20204;-66
2021/05/29 02:49:09;;;;;;;30.77;17.47;;;;;;;;;;5042256;28;20192;-66
2021/05/29 02:51:34;;;;;;;28.60;17.47;;;;;;;;;;5040603;28;20225;-66
2021/05/29 02:54:00;;;;;;;28.77;17.47;;;;;;;;;;5033649;28;20264;-66
2021/05/29 02:56:25;;;;;;;30.40;17.07;;;;;;;;;;5041397;28;20231;-66
2021/05/29 02:58:50;;;;;;;34.97;18.43;;;;;;;;;;5032496;28;20285;-66
2021/05/29 03:01:15;;;;;;;32.50;18.40;;;;;;;;;;5041009;28;20266;-66
2021/05/29 03:03:41;;;;;;;26.37;16.63;;;;;;;;;;5035915;28;20184;-66
2021/05/29 03:06:06;;;;;;;28.27;17.03;;;;;;;;;;5040841;28;20201;-66
2021/05/29 03:08:31;;;;;;;27.43;16.87;;;;;;;;;;5035458;28;20178;-66
2021/05/29 03:10:57;;;;;;;26.23;16.23;;;;;;;;;;5040892;28;20188;-66
2021/05/29 03:13:22;;;;;;;33.90;19.47;;;;;;;;;;5037615;28;20583;-66
2021/05/29 03:15:48;;;;;;;36.23;20.03;;;;;;;;;;5031043;28;20186;-66
2021/05/29 03:18:13;;;;;;;33.63;19.70;;;;;;;;;;5045940;28;20173;-66
2021/05/29 03:20:39;;;;;;;29.10;18.10;;;;;;;;;;5035910;28;20181;-66
2021/05/29 03:23:05;;;;;;;28.37;17.33;;;;;;;;;;5045463;28;20209;-66
2021/05/29 03:25:30;;;;;;;27.67;17.20;;;;;;;;;;5033063;28;20536;-66
2021/05/29 03:27:56;;;;;;;26.53;16.60;;;;;;;;;;5044024;28;20184;-66
2021/05/29 03:30:26;;;;;;;29.03;17.50;;;;;;;;;;5034846;28;20645;-66
2021/05/29 03:32:51;;;;;;;25.53;16.03;;;;;;;;;;5042265;28;20193;-66
2021/05/29 03:35:17;;;;;;;29.50;18.00;;;;;;;;;;5037468;28;20714;-66
2021/05/29 03:37:43;;;;;;;30.93;17.87;;;;;;;;;;5044473;28;20204;-66
2021/05/29 03:40:10;;;;;;;30.27;18.10;;;;;;;;;;5032457;28;21313;-66
2021/05/29 03:42:35;;;;;;;28.27;17.93;;;;;;;;;;5039043;28;20182;-66
2021/05/29 03:45:01;;;;;;;28.10;17.57;;;;;;;;;;5044059;28;20545;-66
2021/05/29 03:47:27;;;;;;;30.30;17.17;;;;;;;;;;5031507;28;20672;-66
2021/05/29 03:49:52;;;;;;;30.07;17.60;;;;;;;;;;5036751;28;20220;-66
2021/05/29 03:52:17;;;;;;;25.50;16.50;;;;;;;;;;5038080;28;20603;-66
2021/05/29 03:54:44;;;;;;;31.57;17.80;;;;;;;;;;5041049;28;20657;-66
2021/05/29 03:57:09;;;;;;;29.98;19.48;;;;;;;;;;5031059;28;20533;-66
2021/05/29 03:59:34;;;;;;;29.70;18.80;;;;;;;;;;5042819;28;20251;-66
2021/05/29 04:02:00;;;;;;;30.73;17.50;;;;;;;;;;5031524;28;20209;-66
2021/05/29 04:04:25;;;;;;;30.77;17.42;;;;;;;;;;5039554;28;20228;-66
2021/05/29 04:06:50;;;;;;;30.20;17.55;;;;;;;;;;5032509;28;20223;-66
2021/05/29 04:09:16;;;;;;;31.55;17.52;;;;;;;;;;5039245;28;20235;-66
2021/05/29 04:11:41;;;;;;;35.08;19.60;;;;;;;;;;5035349;28;20220;-66
2021/05/29 04:14:07;;;;;;;34.83;21.23;;;;;;;;;;5030104;28;20197;-66
2021/05/29 04:16:32;;;;;;;38.25;21.30;;;;;;;;;;5037007;28;20197;-66
2021/05/29 04:18:58;;;;;;;49.80;25.73;;;;;;;;;;5032660;28;20232;-66
2021/05/29 04:21:24;;;;;;;56.47;28.33;;;;;;;;;;5039045;28;20746;-66
2021/05/29 04:23:49;;;;;;;50.20;28.73;;;;;;;;;;5031238;28;20196;-66
2021/05/29 04:26:15;;;;;;;46.10;26.83;;;;;;;;;;5035901;28;20351;-66
2021/05/29 04:28:41;;;;;;;51.67;27.60;;;;;;;;;;5035151;28;20649;-66
2021/05/29 04:31:06;;;;;;;55.22;27.15;;;;;;;;;;5040188;28;20651;-66
2021/05/29 04:33:32;;;;;;;50.50;26.83;;;;;;;;;;5027273;28;20251;-66
2021/05/29 04:35:59;;;;;;;53.90;27.58;;;;;;;;;;5036059;28;20566;-66
2021/05/29 04:38:26;;;;;;;52.25;26.75;;;;;;;;;;5028247;28;20209;-66
2021/05/29 04:40:52;;;;;;;64.72;26.33;;;;;;;;;;5036878;28;20235;-66
2021/05/29 04:43:18;;;;;;;50.25;25.98;;;;;;;;;;5033133;28;20193;-66
2021/05/29 04:45:43;;;;;;;39.40;23.95;;;;;;;;;;5033633;28;20814;-66
2021/05/29 04:48:09;;;;;;;49.15;24.30;;;;;;;;;;5036930;28;20227;-66
2021/05/29 04:51:11;;;;;;;39.92;22.77;;;;;;;;;;5031230;28;20588;-66
2021/05/29 04:53:23;;;;;;;38.75;22.75;;;;;;;;;;5036565;28;20249;-66
2021/05/29 04:55:48;;;;;;;32.72;21.10;;;;;;;;;;5028821;28;20189;-66
2021/05/29 04:58:14;;;;;;;33.50;21.05;;;;;;;;;;5037788;28;20304;-66
2021/05/29 05:00:39;;;;;;;31.08;19.70;;;;;;;;;;5029777;28;20196;-66
2021/05/29 05:03:05;;;;;;;32.40;20.65;;;;;;;;;;5039924;28;20185;-66
2021/05/29 05:05:30;;;;;;;32.22;20.85;;;;;;;;;;5034341;28;20220;-66
2021/05/29 05:07:55;;;;;;;28.88;19.30;;;;;;;;;;5038210;28;20651;-66
2021/05/29 05:10:21;;;;;;;34.17;20.30;;;;;;;;;;5027741;28;20202;-66
2021/05/29 05:12:47;;;;;;;33.22;20.70;;;;;;;;;;5034632;28;20629;-67
2021/05/29 05:15:13;;;;;;;28.33;19.25;;;;;;;;;;5027388;28;23687;-66
2021/05/29 05:17:39;;;;;;;31.67;20.02;;;;;;;;;;5036533;28;20239;-66
2021/05/29 05:20:05;;;;;;;30.90;20.05;;;;;;;;;;5040139;28;20198;-66
2021/05/29 05:22:30;;;;;;;29.10;19.88;;;;;;;;;;5033641;28;20186;-66
2021/05/29 05:24:55;;;;;;;31.75;19.92;;;;;;;;;;5041304;28;20193;-66
2021/05/29 05:27:21;;;;;;;32.95;20.15;;;;;;;;;;5037219;28;20189;-66
2021/05/29 05:29:46;;;;;;;31.00;19.08;;;;;;;;;;5040709;28;20669;-66
2021/05/29 05:32:11;;;;;;;32.88;20.70;;;;;;;;;;5028297;28;20260;-67
2021/05/29 05:34:36;;;;;;;30.42;20.08;;;;;;;;;;5045104;28;20182;-66
2021/05/29 05:37:02;;;;;;;29.88;19.95;;;;;;;;;;5039983;28;20185;-68
2021/05/29 05:39:28;;;;;;;29.17;20.60;;;;;;;;;;5040856;28;20182;-66
2021/05/29 05:41:53;;;;;;;32.03;20.80;;;;;;;;;;5031727;28;20185;-66
2021/05/29 05:44:19;;;;;;;26.42;18.77;;;;;;;;;;5040738;28;20189;-66
2021/05/29 05:46:44;;;;;;;32.78;21.35;;;;;;;;;;5031507;28;20205;-66
2021/05/29 05:49:09;;;;;;;30.48;20.40;;;;;;;;;;5038589;28;20198;-67
2021/05/29 05:51:35;;;;;;;32.00;20.40;;;;;;;;;;5041139;28;20708;-67
2021/05/29 05:54:00;;;;;;;25.95;19.27;;;;;;;;;;5033949;28;20196;-67
2021/05/29 05:56:26;;;;;;;29.83;19.23;;;;;;;;;;5043308;28;20878;-67
2021/05/29 05:58:54;;;;;;;30.70;20.00;;;;;;;;;;5032601;28;20189;-67
2021/05/29 06:01:19;;;;;;;28.85;18.67;;;;;;;;;;5043801;28;20619;-67
2021/05/29 06:03:44;;;;;;;30.38;19.95;;;;;;;;;;5035014;28;20271;-67
2021/05/29 06:06:10;;;;;;;27.60;18.38;;;;;;;;;;5042359;28;20224;-68
2021/05/29 06:08:36;;;;;;;25.48;18.67;;;;;;;;;;5034749;28;20264;-66
2021/05/29 06:11:02;;;;;;;25.95;18.85;;;;;;;;;;5041094;28;20751;-66
2021/05/29 06:18:03;;;;;;;31.23;19.58;;;;;;;;;;5037398;28;20197;-67
2021/05/29 06:19:17;;;;;;;31.65;21.48;;;;;;;;;;5036401;28;20627;-66
2021/05/29 06:21:47;;;;;;;33.38;22.60;;;;;;;;;;5043147;28;20174;-67
2021/05/29 06:24:21;;;;;;;31.23;22.63;;;;;;;;;;5034951;28;20204;-65
2021/05/29 06:26:50;;;;;;;32.10;21.50;;;;;;;;;;5040226;28;20367;-66
2021/05/29 06:29:17;;;;;;;30.65;22.48;;;;;;;;;;5032567;28;20193;-66
2021/05/29 06:31:43;;;;;;;29.45;20.73;;;;;;;;;;5049072;28;21003;-67
2021/05/29 06:34:09;;;;;;;30.73;21.40;;;;;;;;;;5030558;28;20189;-67
2021/05/29 06:36:34;;;;;;;30.52;21.42;;;;;;;;;;5044930;28;20173;-67
2021/05/29 06:39:00;;;;;;;26.08;20.15;;;;;;;;;;5041377;28;20588;-67
2021/05/29 06:41:26;;;;;;;27.95;20.17;;;;;;;;;;5036251;28;20186;-68
2021/05/29 06:43:52;;;;;;;26.17;19.15;;;;;;;;;;5040910;28;20289;-67
2021/05/29 06:46:18;;;;;;;25.00;18.55;;;;;;;;;;5029602;28;20217;-66
2021/05/29 06:48:44;;;;;;;23.50;18.83;;;;;;;;;;5037687;28;20186;-66
2021/05/29 06:51:13;;;;;;;27.58;19.27;;;;;;;;;;5027588;28;20238;-68
2021/05/29 06:53:49;;;;;;;24.88;18.17;;;;;;;;;;5040072;28;20197;-66
2021/05/29 06:58:59;;;;;;;24.55;17.80;;;;;;;;;;5041468;28;20327;-67
2021/05/29 07:01:25;;;;;;;23.85;17.30;;;;;;;;;;5038389;28;20755;-66
2021/05/29 07:03:52;;;;;;;21.23;16.05;;;;;;;;;;5042328;28;20261;-67
2021/05/29 07:06:19;;;;;;;20.98;16.13;;;;;;;;;;5034309;28;20217;-67
2021/05/29 07:08:45;;;;;;;25.17;17.30;;;;;;;;;;5040417;28;20679;-67
2021/05/29 07:11:10;;;;;;;27.48;16.73;;;;;;;;;;5030040;28;20185;-67
2021/05/29 07:13:36;;;;;;;26.52;16.02;;;;;;;;;;5045860;28;20324;-67
2021/05/29 07:16:02;;;;;;;23.40;15.88;;;;;;;;;;5035962;28;20544;-66
2021/05/29 07:18:43;;;;;;;23.13;16.73;;;;;;;;;;5033959;28;20789;-67
2021/05/29 07:21:09;;;;;;;19.23;14.43;;;;;;;;;;5038544;28;20708;-67
2021/05/29 07:23:34;;;;;;;18.70;14.57;;;;;;;;;;5033144;28;20178;-67
2021/05/29 07:26:01;;;;;;;19.15;14.25;;;;;;;;;;5041180;28;20198;-68
2021/05/29 07:28:27;;;;;;;19.95;14.55;;;;;;;;;;5031663;28;20216;-67
2021/05/29 07:30:52;;;;;;;16.90;13.65;;;;;;;;;;5033863;28;20232;-67
2021/05/29 07:33:18;;;;;;;21.95;14.82;;;;;;;;;;5032976;28;20232;-66
2021/05/29 07:35:43;;;;;;;21.30;14.05;;;;;;;;;;5037851;28;20189;-66
2021/05/29 07:38:09;;;;;;;20.75;13.85;;;;;;;;;;5025887;28;20542;-65
2021/05/29 07:40:34;;;;;;;19.85;13.93;;;;;;;;;;5038205;28;20209;-66
2021/05/29 07:43:00;;;;;;;18.55;13.40;;;;;;;;;;5032838;28;20872;-67
2021/05/29 07:45:26;;;;;;;17.83;12.45;;;;;;;;;;5038263;28;20566;-66
2021/05/29 07:47:52;;;;;;;18.30;11.50;;;;;;;;;;5039031;28;20193;-66
2021/05/29 07:50:17;;;;;;;21.02;12.63;;;;;;;;;;5028783;28;20233;-67
2021/05/29 07:52:44;;;;;;;17.13;12.77;;;;;;;;;;5045117;28;20190;-66
2021/05/29 07:55:10;;;;;;;16.63;12.32;;;;;;;;;;5025860;28;20222;-66
2021/05/29 07:57:35;;;;;;;16.60;12.23;;;;;;;;;;5038949;28;20190;-66
2021/05/29 08:00:04;;;;;;;14.77;11.40;;;;;;;;;;5029662;28;20413;-66
2021/05/29 08:02:29;;;;;;;15.00;10.68;;;;;;;;;;5041625;28;20197;-66
2021/05/29 08:04:55;;;;;;;14.15;10.60;;;;;;;;;;5029780;28;20589;-66
2021/05/29 08:07:20;;;;;;;18.00;12.13;;;;;;;;;;5035445;28;20197;-66
2021/05/29 08:09:46;;;;;;;15.82;11.70;;;;;;;;;;5025558;28;20183;-66
2021/05/29 08:12:11;;;;;;;15.52;11.75;;;;;;;;;;5037532;28;20536;-66
2021/05/29 08:14:36;;;;;;;20.52;12.77;;;;;;;;;;5032094;28;20284;-66
2021/05/29 08:17:05;;;;;;;16.08;11.82;;;;;;;;;;5039315;28;20252;-66
2021/05/29 08:19:30;;;;;;;14.57;11.20;;;;;;;;;;5032681;28;20193;-66
2021/05/29 08:21:56;;;;;;;18.45;11.75;;;;;;;;;;5039212;28;20242;-66
2021/05/29 08:24:21;;;;;;;16.02;10.90;;;;;;;;;;5036940;28;20182;-66
2021/05/29 08:26:46;;;;;;;13.77;10.25;;;;;;;;;;5028075;28;20292;-66
2021/05/29 08:29:14;;;;;;;14.45;10.45;;;;;;;;;;5039266;28;20629;-67
2021/05/29 08:31:42;;;;;;;15.25;10.75;;;;;;;;;;5029578;28;20188;-65
2021/05/29 08:34:08;;;;;;;18.65;10.60;;;;;;;;;;5038617;28;20189;-66
2021/05/29 08:36:33;;;;;;;15.45;11.00;;;;;;;;;;5036775;28;20235;-67
2021/05/29 08:38:58;;;;;;;11.88;9.13;;;;;;;;;;5039843;28;20194;-67
2021/05/29 08:41:24;;;;;;;12.38;9.07;;;;;;;;;;5033090;28;20193;-67
2021/05/29 08:43:49;;;;;;;12.77;9.05;;;;;;;;;;5036090;28;20194;-68
2021/05/29 08:46:14;;;;;;;14.10;9.25;;;;;;;;;;5043079;28;20228;-67
2021/05/29 08:48:41;;;;;;;14.50;9.10;;;;;;;;;;5040038;28;20661;-66
2021/05/29 08:51:13;;;;;;;15.00;10.20;;;;;;;;;;5042504;28;20287;-67
2021/05/29 08:53:50;;;;;;;16.00;9.32;;;;;;;;;;5032154;28;20213;-67
2021/05/29 08:56:17;;;;;;;13.80;9.35;;;;;;;;;;5039967;28;20176;-67
2021/05/29 08:58:43;;;;;;;15.23;9.63;;;;;;;;;;5034771;28;20236;-67
2021/05/29 09:01:10;;;;;;;17.33;10.27;;;;;;;;;;5032600;28;20233;-67
2021/05/29 09:03:50;;;;;;;13.77;9.30;;;;;;;;;;5026610;28;20185;-66
2021/05/29 09:06:36;;;;;;;11.93;9.32;;;;;;;;;;5038828;28;20304;-66
2021/05/29 09:09:10;;;;;;;11.27;7.35;;;;;;;;;;5030204;28;20672;-67
2021/05/29 09:11:48;;;;;;;12.85;7.85;;;;;;;;;;5035987;28;20216;-67
2021/05/29 09:17:03;;;;;;;12.18;7.28;;;;;;;;;;5037314;28;20193;-67
2021/05/29 09:19:49;;;;;;;14.77;8.55;;;;;;;;;;5031020;28;20291;-69
2021/05/29 09:22:14;;;;;;;15.73;8.57;;;;;;;;;;5042719;28;20189;-67
2021/05/29 09:24:39;;;;;;;16.08;9.00;;;;;;;;;;5030458;28;20243;-68
2021/05/29 09:27:08;;;;;;;48.15;17.95;;;;;;;;;;5041501;28;20201;-68
2021/05/29 09:29:34;;;;;;;15.05;8.60;;;;;;;;;;5031367;28;20181;-69
2021/05/29 09:32:08;;;;;;;25.55;12.82;;;;;;;;;;5035901;28;20189;-68
2021/05/29 09:34:42;;;;;;;17.27;9.70;;;;;;;;;;5028277;28;20197;-68
2021/05/29 09:37:11;;;;;;;14.00;9.38;;;;;;;;;;5034297;28;20656;-68
2021/05/29 09:39:38;;;;;;;83.03;27.27;;;;;;;;;;5029141;28;20192;-68
2021/05/29 09:42:06;;;;;;;34.05;16.90;;;;;;;;;;5040611;28;20192;-68
2021/05/29 09:44:32;;;;;;;12.98;8.60;;;;;;;;;;5031768;28;20197;-68
2021/05/29 09:47:00;;;;;;;14.50;8.23;;;;;;;;;;5038790;28;20193;-68
2021/05/29 09:49:53;;;;;;;11.07;7.45;;;;;;;;;;5034025;28;20197;-67
2021/05/29 09:52:34;;;;;;;10.80;7.30;;;;;;;;;;5033646;28;20681;-69
2021/05/29 09:55:02;;;;;;;10.23;6.68;;;;;;;;;;5027225;28;20224;-67
2021/05/29 09:57:28;;;;;;;9.13;6.60;;;;;;;;;;5031093;28;20186;-68
2021/05/29 09:59:55;;;;;;;10.00;6.82;;;;;;;;;;5029843;28;20236;-68
2021/05/29 10:02:20;;;;;;;10.57;5.72;;;;;;;;;;5039947;28;20201;-68
2021/05/29 10:04:52;;;;;;;9.55;6.43;;;;;;;;;;5043892;28;20194;-68
2021/05/29 10:07:17;;;;;;;9.30;6.32;;;;;;;;;;5041963;28;20301;-68
2021/05/29 10:09:44;;;;;;;8.43;6.10;;;;;;;;;;5037972;28;20201;-68
2021/05/29 10:12:09;;;;;;;11.27;7.43;;;;;;;;;;5032401;28;20181;-68
2021/05/29 10:14:36;;;;;;;7.70;6.50;;;;;;;;;;5046461;28;20230;-69
2021/05/29 10:17:03;;;;;;;9.52;6.47;;;;;;;;;;5034132;28;20273;-69
2021/05/29 10:19:29;;;;;;;10.55;6.95;;;;;;;;;;5041428;28;21499;-69
2021/05/29 10:21:55;;;;;;;9.50;6.32;;;;;;;;;;5033075;28;20605;-68
2021/05/29 10:24:23;;;;;;;13.15;7.20;;;;;;;;;;5040190;28;20204;-69
2021/05/29 10:26:50;;;;;;;11.82;6.88;;;;;;;;;;5037399;28;20212;-68
2021/05/29 10:29:17;;;;;;;11.05;6.95;;;;;;;;;;5044106;28;20208;-68
2021/05/29 10:31:43;;;;;;;9.63;6.50;;;;;;;;;;5033307;28;20235;-68
2021/05/29 10:34:09;;;;;;;9.05;6.45;;;;;;;;;;5036883;28;20567;-68
2021/05/29 10:36:49;;;;;;;8.45;5.97;;;;;;;;;;5039388;28;20734;-69
2021/05/29 10:39:42;;;;;;;7.60;6.00;;;;;;;;;;5041009;28;20571;-70
2021/05/29 10:42:07;;;;;;;10.40;5.90;;;;;;;;;;5031134;28;20232;-69
2021/05/29 10:44:42;;;;;;;7.90;6.00;;;;;;;;;;5044961;28;20178;-68
2021/05/29 10:47:19;;;;;;;9.55;6.10;;;;;;;;;;5044201;28;20744;-67
2021/05/29 10:49:47;;;;;;;8.43;5.40;;;;;;;;;;5040227;28;20189;-68
2021/05/29 10:52:31;;;;;;;10.45;6.03;;;;;;;;;;5033004;28;20242;-68
2021/05/29 10:55:08;;;;;;;10.35;7.00;;;;;;;;;;5043610;28;20235;-68
2021/05/29 10:57:53;;;;;;;10.27;6.68;;;;;;;;;;5041636;28;20208;-67
2021/05/29 11:00:43;;;;;;;9.75;6.90;;;;;;;;;;5047510;28;20576;-66
2021/05/29 11:03:17;;;;;;;9.68;6.30;;;;;;;;;;5035344;28;20181;-67
2021/05/29 11:05:47;;;;;;;9.05;6.03;;;;;;;;;;5040705;28;20216;-70
2021/05/29 11:08:45;;;;;;;8.65;6.35;;;;;;;;;;5038660;28;20196;-68
2021/05/29 11:14:49;;;;;;;8.60;6.00;;;;;;;;;;5034332;28;20208;-68
2021/05/29 11:17:20;;;;;;;8.20;5.43;;;;;;;;;;5043527;28;20197;-68
2021/05/29 11:20:09;;;;;;;8.82;5.75;;;;;;;;;;5040042;28;20232;-68
2021/05/29 11:22:43;;;;;;;8.73;6.00;;;;;;;;;;5039615;28;20655;-69
2021/05/29 11:25:13;;;;;;;7.57;5.43;;;;;;;;;;5039423;28;20189;-68
2021/05/29 11:27:39;;;;;;;9.75;5.40;;;;;;;;;;5040081;28;20544;-68
2021/05/29 11:30:08;;;;;;;7.82;5.07;;;;;;;;;;5034879;28;20661;-68
2021/05/29 11:32:59;;;;;;;6.60;4.90;;;;;;;;;;5042916;28;20208;-68
2021/05/29 11:35:30;;;;;;;7.85;5.18;;;;;;;;;;5030488;28;20203;-67
2021/05/29 11:38:06;;;;;;;7.22;4.78;;;;;;;;;;5038714;28;20652;-67
2021/05/29 11:40:56;;;;;;;6.22;4.30;;;;;;;;;;5032244;28;20192;-68
2021/05/29 11:43:35;;;;;;;8.35;5.43;;;;;;;;;;5039739;28;20197;-69
2021/05/29 11:46:02;;;;;;;8.13;5.15;;;;;;;;;;5036756;28;20212;-69
2021/05/29 11:48:30;;;;;;;9.82;6.03;;;;;;;;;;5040350;28;20173;-67
2021/05/29 11:51:12;;;;;;;8.10;5.63;;;;;;;;;;5033247;28;20240;-68
2021/05/29 11:54:02;;;;;;;6.82;5.53;;;;;;;;;;5035433;28;20641;-68
2021/05/29 11:56:32;;;;;;;6.88;5.75;;;;;;;;;;5032622;28;20197;-67
2021/05/29 11:58:59;;;;;;;7.88;5.50;;;;;;;;;;5035215;28;20221;-70
2021/05/29 12:01:29;;;;;;;7.75;5.60;;;;;;;;;;5034562;28;20311;-67
2021/05/29 12:03:57;;;;;;;7.57;5.18;;;;;;;;;;5039712;28;20209;-66
2021/05/29 12:06:34;;;;;;;6.97;5.18;;;;;;;;;;5040758;28;20271;-66
2021/05/29 12:09:03;;;;;;;7.43;5.15;;;;;;;;;;5030670;28;20205;-66
2021/05/29 12:11:31;;;;;;;9.25;5.55;;;;;;;;;;5034191;28;20547;-70
2021/05/29 12:14:05;;;;;;;7.22;5.47;;;;;;;;;;5033975;28;20178;-70
2021/05/29 12:16:34;;;;;;;6.88;4.85;;;;;;;;;;5041350;28;20181;-67
2021/05/29 12:19:00;;;;;;;10.15;5.13;;;;;;;;;;5030149;28;20193;-68
2021/05/29 12:21:41;;;;;;;9.43;5.95;;;;;;;;;;5036274;28;20190;-67
2021/05/29 12:24:06;;;;;;;8.13;5.90;;;;;;;;;;5027267;28;20700;-67
2021/05/29 12:26:31;;;;;;;6.88;5.63;;;;;;;;;;5038478;28;20252;-68
2021/05/29 12:28:57;;;;;;;7.53;5.68;;;;;;;;;;5031743;28;20189;-67
2021/05/29 12:31:23;;;;;;;9.52;5.72;;;;;;;;;;5037220;28;20218;-67
2021/05/29 12:34:02;;;;;;;11.40;6.35;;;;;;;;;;5030971;28;20664;-68
2021/05/29 12:36:27;;;;;;;19.13;6.03;;;;;;;;;;5036409;28;20608;-68
2021/05/29 12:38:55;;;;;;;8.80;5.38;;;;;;;;;;5027687;28;20281;-68
2021/05/29 12:41:24;;;;;;;7.82;5.25;;;;;;;;;;5036762;28;20268;-68
2021/05/29 12:44:06;;;;;;;9.45;5.20;;;;;;;;;;5032608;28;20190;-68
2021/05/29 12:46:32;;;;;;;7.57;5.43;;;;;;;;;;5035893;28;20275;-68
2021/05/29 12:49:16;;;;;;;8.75;5.50;;;;;;;;;;5030832;28;20185;-68
2021/05/29 12:51:50;;;;;;;9.93;6.10;;;;;;;;;;5033517;28;20261;-72
2021/05/29 12:54:16;;;;;;;7.88;5.70;;;;;;;;;;5029463;28;20216;-68
2021/05/29 12:56:57;;;;;;;9.68;5.53;;;;;;;;;;5037243;28;20212;-68
2021/05/29 12:59:28;;;;;;;9.43;5.60;;;;;;;;;;5030039;28;20640;-69
2021/05/29 13:07:28;;;;;;;7.18;5.10;;;;;;;;;;5039137;28;20735;-69
2021/05/29 13:10:01;;;;;;;8.38;5.00;;;;;;;;;;5029245;28;20205;-69
2021/05/29 13:12:27;;;;;;;8.32;5.03;;;;;;;;;;5033965;28;20184;-68
2021/05/29 13:14:53;;;;;;;8.27;5.47;;;;;;;;;;5024573;28;20186;-68
2021/05/29 13:17:30;;;;;;;7.22;5.07;;;;;;;;;;5035969;28;21702;-70
2021/05/29 13:20:05;;;;;;;6.57;4.35;;;;;;;;;;5028972;28;20212;-68
2021/05/29 13:22:35;;;;;;;8.43;5.25;;;;;;;;;;5039265;28;20201;-68
2021/05/29 13:25:08;;;;;;;10.82;5.95;;;;;;;;;;5035245;28;20197;-67
2021/05/29 13:27:50;;;;;;;6.88;5.47;;;;;;;;;;5032451;28;20240;-69
2021/05/29 13:30:19;;;;;;;11.15;5.57;;;;;;;;;;5034974;28;20177;-69
2021/05/29 13:32:49;;;;;;;6.43;4.60;;;;;;;;;;5032752;28;20256;-69
2021/05/29 13:35:17;;;;;;;7.07;4.97;;;;;;;;;;4342729;28;10000800;-68
2021/05/29 13:37:42;;;;;;;6.60;4.53;;;;;;;;;;5034070;28;20789;-68
2021/05/29 13:40:09;;;;;;;8.55;5.15;;;;;;;;;;5036125;28;20240;-67
2021/05/29 13:42:36;;;;;;;8.25;4.57;;;;;;;;;;5026807;28;20225;-68
2021/05/29 13:45:11;;;;;;;8.07;4.80;;;;;;;;;;5034801;28;20213;-67
2021/05/29 13:47:36;;;;;;;6.90;4.93;;;;;;;;;;5026430;28;20678;-69
2021/05/29 13:50:02;;;;;;;7.40;5.63;;;;;;;;;;5032432;28;20186;-69
2021/05/29 13:52:27;;;;;;;8.15;5.43;;;;;;;;;;5025200;28;20304;-68
2021/05/29 13:54:52;;;;;;;7.90;4.82;;;;;;;;;;5039054;28;20208;-68
2021/05/29 13:57:18;;;;;;;10.40;5.15;;;;;;;;;;5026921;28;20186;-68
2021/05/29 13:59:43;;;;;;;8.88;5.20;;;;;;;;;;5033644;28;20292;-68
2021/05/29 14:02:08;;;;;;;7.85;5.13;;;;;;;;;;5024782;28;20695;-68
2021/05/29 14:04:34;;;;;;;6.97;4.85;;;;;;;;;;5036081;28;20435;-69
2021/05/29 14:06:59;;;;;;;5.70;4.15;;;;;;;;;;5033548;28;20283;-68
2021/05/29 14:09:25;;;;;;;6.35;4.18;;;;;;;;;;5026947;28;20656;-67
2021/05/29 14:11:51;;;;;;;6.85;4.05;;;;;;;;;;5039758;28;20198;-69
2021/05/29 14:14:18;;;;;;;6.22;4.40;;;;;;;;;;5027338;28;20235;-69
2021/05/29 14:16:43;;;;;;;8.02;4.40;;;;;;;;;;5033887;28;20178;-68
2021/05/29 14:19:08;;;;;;;6.00;4.30;;;;;;;;;;5031872;28;20185;-69
2021/05/29 14:21:35;;;;;;;9.55;4.22;;;;;;;;;;5037429;28;20253;-69
2021/05/29 14:24:02;;;;;;;7.53;4.25;;;;;;;;;;5031128;28;20189;-69
2021/05/29 14:26:31;;;;;;;7.10;4.35;;;;;;;;;;5037934;28;20544;-68
2021/05/29 14:29:02;;;;;;;5.65;4.22;;;;;;;;;;5032323;28;20281;-69
2021/05/29 14:31:29;;;;;;;5.47;3.88;;;;;;;;;;5034481;28;20541;-69
2021/05/29 14:33:55;;;;;;;5.10;4.28;;;;;;;;;;5026577;28;20189;-68
2021/05/29 14:36:22;;;;;;;3.55;3.20;;;;;;;;;;5034799;28;20272;-68
2021/05/29 14:38:49;;;;;;;8.15;4.03;;;;;;;;;;5034185;28;20193;-68
2021/05/29 14:41:15;;;;;;;7.18;4.28;;;;;;;;;;5021552;28;20856;-67
2021/05/29 14:43:40;;;;;;;7.68;4.10;;;;;;;;;;5039154;28;20189;-67
2021/05/29 14:46:06;;;;;;;7.47;4.00;;;;;;;;;;5025056;28;20232;-67
2021/05/29 14:48:31;;;;;;;5.88;4.45;;;;;;;;;;5033234;28;20674;-68
2021/05/29 14:53:41;;;;;;;6.47;3.97;;;;;;;;;;5039181;28;20720;-68